Kezdőlap
METAR-TAF:

METAR-TAF

Repülőterek :

Clark Field Municipal Airport

Stephenville, Texas, Amerikai Egyesült Államok

földrajzi szélesség: 32-13N, földrajzi hosszúság: 098-11W, magasság: 403 m

Jelenlegi meteorológiai megfigyelések

A jelentés 31 perccel ezelõtt készült, 20:55 UTC
Déli szél 7 kt
Hőmérséklet 33°C
Páratartalom 41%
Légköri nyomás 1013 hPa
Látótávolság: 16.1 km
Derült ég

METAR: KSEP 152055Z AUTO 18007KT 10SM CLR 33/18 A2992 RMK AO2 T03260180

Idő: 16:26 (21:26 UTC)


TAF: hiányzik

Meteorológiai megfigyelések és előrejelzések több, mint 4000 repülőtéren (METAR és TAF jelentéseket).

A térképen piros és sárga pontok jelzik az elérhető meteorológiai állomásokat.

Mozgassa az egeret a pont fölött, hogy megjelenjen az állomás neve.

Azután kattintson az időjárási megfigyelések és előrejelzések megtekintéséhez.

A térkép megváltoztatása: kattintson a fekete keresztel jelölt zöld gombra ráközelítéshez, a vonallal jelölt zöld gombra távolításhoz, vagy a zöld nyilakra a szomszédos térképek eléréséhez.


METAR-TAF: